Aden, Yemen
Current Conditions -  °F | °C
As of 6:55 AM on Friday 28 Nov 2014 (Local Time) from KQRH Reporting Station
Scattered Clouds Scattered Clouds  
Wind Chill: 81°   Ceiling: Unl
Heat Index: 85°   Visibility: 6mi
Dew Point: 71°   Wind: 5mph
Humidity: 72%   Direction: NA
Pressure: 30"   Gusts: NA
Location:  12.79°N, 45.03°E
Report Text: KQRH 280355Z AUTO VRB04KT 9999 FEW031 SCT047 27/22 A3000 RMK AO2 SLP157 T02710216
Loading
Personal Weather Stations






























Interactive Weather Map New forecast layout! Learn more

10-Day Weather Forecast

Advertisements
Track Severe Weather on mobile